sensor_id;sensor_type;location;lat;lon;timestamp;P1;durP1;ratioP1;P2;durP2;ratioP2
59880;SDS011;45751;51.380;10.326;2023-05-25T00:00:26;21.77;;;5.82;;
59880;SDS011;45751;51.380;10.326;2023-05-25T00:02:54;17.38;;;5.50;;
59880;SDS011;45751;51.380;10.326;2023-05-25T00:05:21;14.18;;;5.75;;
59880;SDS011;45751;51.380;10.326;2023-05-25T00:10:20;19.98;;;5.65;;
59880;SDS011;45751;51.380;10.326;2023-05-25T00:12:50;16.05;;;4.72;;
59880;SDS011;45751;51.380;10.326;2023-05-25T00:15:17;17.83;;;5.47;;
59880;SDS011;45751;51.380;10.326;2023-05-25T00:17:44;21.80;;;6.93;;
59880;SDS011;45751;51.380;10.326;2023-05-25T00:20:14;17.33;;;7.20;;
59880;SDS011;45751;51.380;10.326;2023-05-25T00:22:42;19.38;;;6.40;;
59880;SDS011;45751;51.380;10.326;2023-05-25T00:25:12;16.27;;;5.50;;
59880;SDS011;45751;51.380;10.326;2023-05-25T00:27:39;21.20;;;5.82;;
59880;SDS011;45751;51.380;10.326;2023-05-25T00:30:06;12.38;;;5.72;;
59880;SDS011;45751;51.380;10.326;2023-05-25T00:32:34;14.15;;;5.57;;
59880;SDS011;45751;51.380;10.326;2023-05-25T00:35:01;14.57;;;6.10;;
59880;SDS011;45751;51.380;10.326;2023-05-25T00:37:28;19.30;;;6.88;;
59880;SDS011;45751;51.380;10.326;2023-05-25T00:39:55;15.82;;;6.57;;
59880;SDS011;45751;51.380;10.326;2023-05-25T00:42:22;19.55;;;6.90;;
59880;SDS011;45751;51.380;10.326;2023-05-25T00:44:49;24.52;;;6.82;;
59880;SDS011;45751;51.380;10.326;2023-05-25T00:47:16;21.50;;;6.72;;
59880;SDS011;45751;51.380;10.326;2023-05-25T00:49:44;22.80;;;5.60;;
59880;SDS011;45751;51.380;10.326;2023-05-25T00:52:11;21.50;;;6.57;;
59880;SDS011;45751;51.380;10.326;2023-05-25T00:54:42;25.48;;;6.63;;
59880;SDS011;45751;51.380;10.326;2023-05-25T00:57:13;18.25;;;6.88;;
59880;SDS011;45751;51.380;10.326;2023-05-25T00:59:43;17.77;;;6.72;;
59880;SDS011;45751;51.380;10.326;2023-05-25T01:02:14;19.77;;;7.15;;
59880;SDS011;45751;51.380;10.326;2023-05-25T01:04:46;18.08;;;5.32;;
59880;SDS011;45751;51.380;10.326;2023-05-25T01:07:20;18.02;;;6.43;;
59880;SDS011;45751;51.380;10.326;2023-05-25T01:09:49;18.15;;;5.75;;
59880;SDS011;45751;51.380;10.326;2023-05-25T01:12:22;17.85;;;5.82;;
59880;SDS011;45751;51.380;10.326;2023-05-25T01:14:52;17.00;;;6.68;;
59880;SDS011;45751;51.380;10.326;2023-05-25T01:17:23;16.52;;;5.55;;
59880;SDS011;45751;51.380;10.326;2023-05-25T01:19:51;16.10;;;5.60;;
59880;SDS011;45751;51.380;10.326;2023-05-25T01:22:50;20.25;;;6.50;;
59880;SDS011;45751;51.380;10.326;2023-05-25T01:25:24;18.77;;;5.78;;
59880;SDS011;45751;51.380;10.326;2023-05-25T01:28:10;16.67;;;5.78;;
59880;SDS011;45751;51.380;10.326;2023-05-25T01:30:47;13.23;;;4.97;;
59880;SDS011;45751;51.380;10.326;2023-05-25T01:33:18;15.88;;;5.72;;
59880;SDS011;45751;51.380;10.326;2023-05-25T01:35:46;16.08;;;5.45;;
59880;SDS011;45751;51.380;10.326;2023-05-25T01:38:14;13.85;;;5.30;;
59880;SDS011;45751;51.380;10.326;2023-05-25T01:40:43;16.75;;;5.68;;
59880;SDS011;45751;51.380;10.326;2023-05-25T01:43:09;22.45;;;6.25;;
59880;SDS011;45751;51.380;10.326;2023-05-25T01:45:36;17.50;;;5.45;;
59880;SDS011;45751;51.380;10.326;2023-05-25T01:51:10;13.05;;;5.38;;
59880;SDS011;45751;51.380;10.326;2023-05-25T01:53:51;21.58;;;6.50;;
59880;SDS011;45751;51.380;10.326;2023-05-25T01:56:26;17.73;;;6.07;;
59880;SDS011;45751;51.380;10.326;2023-05-25T01:58:56;18.33;;;5.78;;
59880;SDS011;45751;51.380;10.326;2023-05-25T02:01:26;15.50;;;6.68;;
59880;SDS011;45751;51.380;10.326;2023-05-25T02:03:54;18.98;;;6.80;;
59880;SDS011;45751;51.380;10.326;2023-05-25T02:06:22;16.40;;;5.88;;
59880;SDS011;45751;51.380;10.326;2023-05-25T02:08:49;16.27;;;6.88;;
59880;SDS011;45751;51.380;10.326;2023-05-25T02:11:16;20.58;;;6.90;;
59880;SDS011;45751;51.380;10.326;2023-05-25T02:13:44;19.27;;;6.70;;
59880;SDS011;45751;51.380;10.326;2023-05-25T02:16:11;19.63;;;7.18;;
59880;SDS011;45751;51.380;10.326;2023-05-25T02:18:43;17.10;;;7.15;;
59880;SDS011;45751;51.380;10.326;2023-05-25T02:21:10;16.92;;;6.60;;
59880;SDS011;45751;51.380;10.326;2023-05-25T02:23:37;16.58;;;6.45;;
59880;SDS011;45751;51.380;10.326;2023-05-25T02:26:04;19.75;;;6.25;;
59880;SDS011;45751;51.380;10.326;2023-05-25T02:28:32;19.63;;;6.63;;
59880;SDS011;45751;51.380;10.326;2023-05-25T02:30:59;17.38;;;6.25;;
59880;SDS011;45751;51.380;10.326;2023-05-25T02:33:26;19.50;;;6.35;;
59880;SDS011;45751;51.380;10.326;2023-05-25T02:35:53;15.63;;;6.57;;
59880;SDS011;45751;51.380;10.326;2023-05-25T02:38:20;19.45;;;6.90;;
59880;SDS011;45751;51.380;10.326;2023-05-25T02:40:47;24.45;;;7.75;;
59880;SDS011;45751;51.380;10.326;2023-05-25T02:43:14;19.48;;;6.47;;
59880;SDS011;45751;51.380;10.326;2023-05-25T02:45:41;17.38;;;6.70;;
59880;SDS011;45751;51.380;10.326;2023-05-25T02:48:09;25.95;;;7.68;;
59880;SDS011;45751;51.380;10.326;2023-05-25T02:50:36;20.90;;;7.28;;
59880;SDS011;45751;51.380;10.326;2023-05-25T02:53:06;18.42;;;6.60;;
59880;SDS011;45751;51.380;10.326;2023-05-25T02:55:33;20.42;;;8.00;;
59880;SDS011;45751;51.380;10.326;2023-05-25T02:58:01;25.35;;;7.72;;
59880;SDS011;45751;51.380;10.326;2023-05-25T03:00:47;25.08;;;8.40;;
59880;SDS011;45751;51.380;10.326;2023-05-25T03:03:15;30.77;;;8.70;;
59880;SDS011;45751;51.380;10.326;2023-05-25T03:05:42;25.30;;;7.15;;
59880;SDS011;45751;51.380;10.326;2023-05-25T03:08:09;22.40;;;8.65;;
59880;SDS011;45751;51.380;10.326;2023-05-25T03:10:36;25.63;;;8.05;;
59880;SDS011;45751;51.380;10.326;2023-05-25T03:13:05;23.58;;;7.30;;
59880;SDS011;45751;51.380;10.326;2023-05-25T03:15:32;25.65;;;8.23;;
59880;SDS011;45751;51.380;10.326;2023-05-25T03:17:59;21.15;;;8.98;;
59880;SDS011;45751;51.380;10.326;2023-05-25T03:20:30;24.98;;;7.90;;
59880;SDS011;45751;51.380;10.326;2023-05-25T03:22:58;28.92;;;9.75;;
59880;SDS011;45751;51.380;10.326;2023-05-25T03:25:25;33.10;;;8.60;;
59880;SDS011;45751;51.380;10.326;2023-05-25T03:27:52;27.73;;;9.65;;
59880;SDS011;45751;51.380;10.326;2023-05-25T03:30:20;28.23;;;9.00;;
59880;SDS011;45751;51.380;10.326;2023-05-25T03:32:49;24.65;;;9.00;;
59880;SDS011;45751;51.380;10.326;2023-05-25T03:35:16;26.30;;;8.32;;
59880;SDS011;45751;51.380;10.326;2023-05-25T03:37:43;28.52;;;9.85;;
59880;SDS011;45751;51.380;10.326;2023-05-25T03:40:10;31.73;;;9.23;;
59880;SDS011;45751;51.380;10.326;2023-05-25T03:42:37;31.00;;;10.48;;
59880;SDS011;45751;51.380;10.326;2023-05-25T03:45:05;34.70;;;11.15;;
59880;SDS011;45751;51.380;10.326;2023-05-25T03:47:35;34.78;;;10.25;;
59880;SDS011;45751;51.380;10.326;2023-05-25T03:50:03;36.05;;;11.10;;
59880;SDS011;45751;51.380;10.326;2023-05-25T03:52:32;27.95;;;9.85;;
59880;SDS011;45751;51.380;10.326;2023-05-25T03:55:01;33.60;;;11.25;;
59880;SDS011;45751;51.380;10.326;2023-05-25T03:57:29;38.35;;;11.60;;
59880;SDS011;45751;51.380;10.326;2023-05-25T03:59:57;30.70;;;10.82;;
59880;SDS011;45751;51.380;10.326;2023-05-25T04:02:24;29.00;;;10.52;;
59880;SDS011;45751;51.380;10.326;2023-05-25T04:04:53;37.03;;;12.07;;
59880;SDS011;45751;51.380;10.326;2023-05-25T04:07:23;33.40;;;12.02;;
59880;SDS011;45751;51.380;10.326;2023-05-25T04:09:52;29.38;;;10.23;;
59880;SDS011;45751;51.380;10.326;2023-05-25T04:12:19;36.55;;;11.27;;
59880;SDS011;45751;51.380;10.326;2023-05-25T04:14:46;31.73;;;10.63;;
59880;SDS011;45751;51.380;10.326;2023-05-25T04:17:13;27.05;;;10.23;;
59880;SDS011;45751;51.380;10.326;2023-05-25T04:19:40;36.67;;;11.50;;
59880;SDS011;45751;51.380;10.326;2023-05-25T04:22:08;27.80;;;10.07;;
59880;SDS011;45751;51.380;10.326;2023-05-25T04:24:35;35.92;;;12.80;;
59880;SDS011;45751;51.380;10.326;2023-05-25T04:27:02;28.83;;;11.68;;
59880;SDS011;45751;51.380;10.326;2023-05-25T04:29:29;33.67;;;10.73;;
59880;SDS011;45751;51.380;10.326;2023-05-25T04:32:16;36.00;;;10.82;;
59880;SDS011;45751;51.380;10.326;2023-05-25T04:34:48;36.35;;;11.50;;
59880;SDS011;45751;51.380;10.326;2023-05-25T04:37:20;27.83;;;10.88;;
59880;SDS011;45751;51.380;10.326;2023-05-25T04:39:48;32.03;;;10.40;;
59880;SDS011;45751;51.380;10.326;2023-05-25T04:42:16;27.58;;;9.80;;
59880;SDS011;45751;51.380;10.326;2023-05-25T04:44:43;32.35;;;11.75;;
59880;SDS011;45751;51.380;10.326;2023-05-25T04:47:10;34.05;;;11.32;;
59880;SDS011;45751;51.380;10.326;2023-05-25T04:49:37;37.95;;;12.00;;
59880;SDS011;45751;51.380;10.326;2023-05-25T04:52:06;36.20;;;13.02;;
59880;SDS011;45751;51.380;10.326;2023-05-25T04:54:34;34.40;;;12.20;;
59880;SDS011;45751;51.380;10.326;2023-05-25T04:57:01;31.02;;;11.73;;
59880;SDS011;45751;51.380;10.326;2023-05-25T04:59:30;31.00;;;10.68;;
59880;SDS011;45751;51.380;10.326;2023-05-25T05:01:57;33.85;;;10.60;;
59880;SDS011;45751;51.380;10.326;2023-05-25T05:04:25;46.15;;;13.65;;
59880;SDS011;45751;51.380;10.326;2023-05-25T05:06:52;34.00;;;11.43;;
59880;SDS011;45751;51.380;10.326;2023-05-25T05:09:23;33.40;;;11.02;;
59880;SDS011;45751;51.380;10.326;2023-05-25T05:11:53;33.42;;;11.18;;
59880;SDS011;45751;51.380;10.326;2023-05-25T05:14:21;32.47;;;9.32;;
59880;SDS011;45751;51.380;10.326;2023-05-25T05:16:48;30.90;;;11.00;;
59880;SDS011;45751;51.380;10.326;2023-05-25T05:19:15;36.60;;;12.80;;
59880;SDS011;45751;51.380;10.326;2023-05-25T05:21:42;35.35;;;10.88;;
59880;SDS011;45751;51.380;10.326;2023-05-25T05:24:10;30.60;;;10.77;;
59880;SDS011;45751;51.380;10.326;2023-05-25T05:26:40;26.20;;;10.13;;
59880;SDS011;45751;51.380;10.326;2023-05-25T05:29:40;37.88;;;11.38;;
59880;SDS011;45751;51.380;10.326;2023-05-25T05:32:07;33.13;;;10.20;;
59880;SDS011;45751;51.380;10.326;2023-05-25T05:34:35;33.92;;;11.15;;
59880;SDS011;45751;51.380;10.326;2023-05-25T05:37:08;31.25;;;10.18;;
59880;SDS011;45751;51.380;10.326;2023-05-25T05:39:35;36.72;;;10.95;;
59880;SDS011;45751;51.380;10.326;2023-05-25T05:42:04;35.15;;;11.10;;
59880;SDS011;45751;51.380;10.326;2023-05-25T05:44:32;33.28;;;11.30;;
59880;SDS011;45751;51.380;10.326;2023-05-25T05:46:59;38.38;;;11.57;;
59880;SDS011;45751;51.380;10.326;2023-05-25T05:49:28;38.45;;;11.43;;
59880;SDS011;45751;51.380;10.326;2023-05-25T05:51:57;33.60;;;10.63;;
59880;SDS011;45751;51.380;10.326;2023-05-25T05:54:24;39.72;;;13.15;;
59880;SDS011;45751;51.380;10.326;2023-05-25T05:56:53;41.80;;;12.02;;
59880;SDS011;45751;51.380;10.326;2023-05-25T05:59:21;41.42;;;11.38;;
59880;SDS011;45751;51.380;10.326;2023-05-25T06:01:48;35.40;;;10.93;;
59880;SDS011;45751;51.380;10.326;2023-05-25T06:04:15;44.08;;;11.73;;
59880;SDS011;45751;51.380;10.326;2023-05-25T06:06:43;39.80;;;11.65;;
59880;SDS011;45751;51.380;10.326;2023-05-25T06:09:11;33.80;;;12.07;;
59880;SDS011;45751;51.380;10.326;2023-05-25T06:11:38;45.53;;;13.20;;
59880;SDS011;45751;51.380;10.326;2023-05-25T06:14:06;42.55;;;11.90;;
59880;SDS011;45751;51.380;10.326;2023-05-25T06:16:34;39.63;;;11.02;;
59880;SDS011;45751;51.380;10.326;2023-05-25T06:19:01;35.33;;;12.05;;
59880;SDS011;45751;51.380;10.326;2023-05-25T06:21:28;39.55;;;11.80;;
59880;SDS011;45751;51.380;10.326;2023-05-25T06:23:55;40.85;;;10.95;;
59880;SDS011;45751;51.380;10.326;2023-05-25T06:26:25;35.28;;;12.10;;
59880;SDS011;45751;51.380;10.326;2023-05-25T06:28:53;32.30;;;11.65;;
59880;SDS011;45751;51.380;10.326;2023-05-25T06:31:20;45.30;;;12.02;;
59880;SDS011;45751;51.380;10.326;2023-05-25T06:33:47;42.08;;;12.73;;
59880;SDS011;45751;51.380;10.326;2023-05-25T06:36:14;35.65;;;12.13;;
59880;SDS011;45751;51.380;10.326;2023-05-25T06:38:42;43.00;;;11.98;;
59880;SDS011;45751;51.380;10.326;2023-05-25T06:41:09;37.55;;;11.30;;
59880;SDS011;45751;51.380;10.326;2023-05-25T06:43:41;37.72;;;12.30;;
59880;SDS011;45751;51.380;10.326;2023-05-25T06:46:13;33.90;;;11.50;;
59880;SDS011;45751;51.380;10.326;2023-05-25T06:48:44;35.45;;;11.50;;
59880;SDS011;45751;51.380;10.326;2023-05-25T06:51:11;35.40;;;11.25;;
59880;SDS011;45751;51.380;10.326;2023-05-25T06:53:38;38.67;;;12.50;;
59880;SDS011;45751;51.380;10.326;2023-05-25T06:56:05;42.53;;;13.48;;
59880;SDS011;45751;51.380;10.326;2023-05-25T06:58:32;43.63;;;12.60;;
59880;SDS011;45751;51.380;10.326;2023-05-25T07:00:59;40.80;;;12.50;;
59880;SDS011;45751;51.380;10.326;2023-05-25T07:03:26;43.88;;;14.20;;
59880;SDS011;45751;51.380;10.326;2023-05-25T07:05:53;42.78;;;13.07;;
59880;SDS011;45751;51.380;10.326;2023-05-25T07:08:20;46.20;;;12.93;;
59880;SDS011;45751;51.380;10.326;2023-05-25T07:10:47;46.80;;;13.85;;
59880;SDS011;45751;51.380;10.326;2023-05-25T07:13:15;40.50;;;12.38;;
59880;SDS011;45751;51.380;10.326;2023-05-25T07:15:42;42.45;;;13.13;;
59880;SDS011;45751;51.380;10.326;2023-05-25T07:18:10;38.10;;;12.52;;
59880;SDS011;45751;51.380;10.326;2023-05-25T07:20:38;43.65;;;12.60;;
59880;SDS011;45751;51.380;10.326;2023-05-25T07:23:08;44.88;;;14.20;;
59880;SDS011;45751;51.380;10.326;2023-05-25T07:25:38;45.25;;;13.70;;
59880;SDS011;45751;51.380;10.326;2023-05-25T07:28:06;43.03;;;11.60;;
59880;SDS011;45751;51.380;10.326;2023-05-25T07:30:33;38.13;;;12.07;;
59880;SDS011;45751;51.380;10.326;2023-05-25T07:33:00;40.40;;;10.98;;
59880;SDS011;45751;51.380;10.326;2023-05-25T07:35:28;43.55;;;12.05;;
59880;SDS011;45751;51.380;10.326;2023-05-25T07:37:58;45.17;;;12.98;;
59880;SDS011;45751;51.380;10.326;2023-05-25T07:40:26;43.88;;;13.00;;
59880;SDS011;45751;51.380;10.326;2023-05-25T07:42:53;39.22;;;12.57;;
59880;SDS011;45751;51.380;10.326;2023-05-25T07:45:20;35.97;;;11.55;;
59880;SDS011;45751;51.380;10.326;2023-05-25T07:47:47;34.17;;;13.30;;
59880;SDS011;45751;51.380;10.326;2023-05-25T07:50:14;38.03;;;11.75;;
59880;SDS011;45751;51.380;10.326;2023-05-25T07:52:41;33.28;;;11.38;;
59880;SDS011;45751;51.380;10.326;2023-05-25T07:55:08;38.90;;;11.57;;
59880;SDS011;45751;51.380;10.326;2023-05-25T07:57:36;31.92;;;11.25;;
59880;SDS011;45751;51.380;10.326;2023-05-25T08:00:03;35.50;;;12.70;;
59880;SDS011;45751;51.380;10.326;2023-05-25T08:02:38;40.97;;;12.02;;
59880;SDS011;45751;51.380;10.326;2023-05-25T08:05:05;51.58;;;18.10;;
59880;SDS011;45751;51.380;10.326;2023-05-25T08:07:32;55.60;;;21.95;;
59880;SDS011;45751;51.380;10.326;2023-05-25T08:10:00;64.05;;;17.52;;
59880;SDS011;45751;51.380;10.326;2023-05-25T08:12:27;51.80;;;16.30;;
59880;SDS011;45751;51.380;10.326;2023-05-25T08:15:13;72.10;;;22.73;;
59880;SDS011;45751;51.380;10.326;2023-05-25T08:17:40;43.92;;;12.43;;
59880;SDS011;45751;51.380;10.326;2023-05-25T08:20:07;38.83;;;12.27;;
59880;SDS011;45751;51.380;10.326;2023-05-25T08:22:36;37.72;;;11.52;;
59880;SDS011;45751;51.380;10.326;2023-05-25T08:25:03;35.83;;;11.63;;
59880;SDS011;45751;51.380;10.326;2023-05-25T08:27:31;33.83;;;12.60;;
59880;SDS011;45751;51.380;10.326;2023-05-25T08:30:02;29.77;;;10.55;;
59880;SDS011;45751;51.380;10.326;2023-05-25T08:32:31;38.47;;;12.50;;
59880;SDS011;45751;51.380;10.326;2023-05-25T08:34:58;38.97;;;11.85;;
59880;SDS011;45751;51.380;10.326;2023-05-25T08:37:25;41.67;;;10.20;;
59880;SDS011;45751;51.380;10.326;2023-05-25T08:39:51;32.63;;;11.40;;
59880;SDS011;45751;51.380;10.326;2023-05-25T08:42:18;38.03;;;12.35;;
59880;SDS011;45751;51.380;10.326;2023-05-25T08:44:46;39.97;;;13.43;;
59880;SDS011;45751;51.380;10.326;2023-05-25T08:47:12;74.60;;;25.15;;
59880;SDS011;45751;51.380;10.326;2023-05-25T08:49:41;46.83;;;13.73;;
59880;SDS011;45751;51.380;10.326;2023-05-25T08:52:12;33.75;;;12.38;;
59880;SDS011;45751;51.380;10.326;2023-05-25T08:54:42;38.78;;;11.52;;
59880;SDS011;45751;51.380;10.326;2023-05-25T08:59:41;32.40;;;10.75;;
59880;SDS011;45751;51.380;10.326;2023-05-25T09:05:19;38.75;;;11.00;;
59880;SDS011;45751;51.380;10.326;2023-05-25T09:07:47;40.05;;;12.20;;
59880;SDS011;45751;51.380;10.326;2023-05-25T09:10:16;40.50;;;11.98;;
59880;SDS011;45751;51.380;10.326;2023-05-25T09:12:44;34.30;;;12.60;;
59880;SDS011;45751;51.380;10.326;2023-05-25T09:15:13;32.35;;;11.27;;
59880;SDS011;45751;51.380;10.326;2023-05-25T09:17:40;29.17;;;10.57;;
59880;SDS011;45751;51.380;10.326;2023-05-25T09:20:10;23.98;;;8.60;;
59880;SDS011;45751;51.380;10.326;2023-05-25T09:22:39;20.27;;;8.38;;
59880;SDS011;45751;51.380;10.326;2023-05-25T09:25:07;23.15;;;8.55;;
59880;SDS011;45751;51.380;10.326;2023-05-25T09:27:36;31.00;;;10.35;;
59880;SDS011;45751;51.380;10.326;2023-05-25T09:30:04;30.15;;;9.98;;
59880;SDS011;45751;51.380;10.326;2023-05-25T09:32:31;32.05;;;10.57;;
59880;SDS011;45751;51.380;10.326;2023-05-25T09:35:08;28.85;;;9.95;;
59880;SDS011;45751;51.380;10.326;2023-05-25T09:37:38;29.10;;;9.55;;
59880;SDS011;45751;51.380;10.326;2023-05-25T09:40:07;33.22;;;9.10;;
59880;SDS011;45751;51.380;10.326;2023-05-25T09:42:36;30.58;;;9.73;;
59880;SDS011;45751;51.380;10.326;2023-05-25T09:45:03;46.78;;;17.45;;
59880;SDS011;45751;51.380;10.326;2023-05-25T09:47:32;23.42;;;10.30;;
59880;SDS011;45751;51.380;10.326;2023-05-25T09:50:01;23.50;;;9.30;;
59880;SDS011;45751;51.380;10.326;2023-05-25T09:52:29;28.73;;;8.48;;
59880;SDS011;45751;51.380;10.326;2023-05-25T09:54:56;26.13;;;8.18;;
59880;SDS011;45751;51.380;10.326;2023-05-25T09:57:23;25.60;;;8.48;;
59880;SDS011;45751;51.380;10.326;2023-05-25T09:59:53;23.58;;;7.35;;
59880;SDS011;45751;51.380;10.326;2023-05-25T10:02:20;27.90;;;7.88;;
59880;SDS011;45751;51.380;10.326;2023-05-25T10:04:47;23.25;;;8.02;;
59880;SDS011;45751;51.380;10.326;2023-05-25T10:07:14;39.85;;;12.85;;
59880;SDS011;45751;51.380;10.326;2023-05-25T10:09:43;30.67;;;10.95;;
59880;SDS011;45751;51.380;10.326;2023-05-25T10:12:12;107.07;;;39.80;;
59880;SDS011;45751;51.380;10.326;2023-05-25T10:14:42;30.58;;;12.15;;
59880;SDS011;45751;51.380;10.326;2023-05-25T10:17:11;25.67;;;10.15;;
59880;SDS011;45751;51.380;10.326;2023-05-25T10:25:02;25.77;;;8.82;;
59880;SDS011;45751;51.380;10.326;2023-05-25T10:27:41;21.63;;;8.77;;
59880;SDS011;45751;51.380;10.326;2023-05-25T10:30:13;25.55;;;9.07;;
59880;SDS011;45751;51.380;10.326;2023-05-25T10:32:41;23.80;;;8.30;;
59880;SDS011;45751;51.380;10.326;2023-05-25T10:35:10;24.67;;;8.38;;
59880;SDS011;45751;51.380;10.326;2023-05-25T10:37:37;22.42;;;8.50;;
59880;SDS011;45751;51.380;10.326;2023-05-25T10:40:05;24.42;;;8.20;;
59880;SDS011;45751;51.380;10.326;2023-05-25T10:42:36;23.88;;;8.55;;
59880;SDS011;45751;51.380;10.326;2023-05-25T10:45:07;23.58;;;7.72;;
59880;SDS011;45751;51.380;10.326;2023-05-25T10:47:35;19.65;;;7.13;;
59880;SDS011;45751;51.380;10.326;2023-05-25T10:50:17;20.60;;;8.52;;
59880;SDS011;45751;51.380;10.326;2023-05-25T10:53:01;23.02;;;8.77;;
59880;SDS011;45751;51.380;10.326;2023-05-25T10:55:28;26.63;;;8.43;;
59880;SDS011;45751;51.380;10.326;2023-05-25T10:58:07;22.17;;;6.47;;
59880;SDS011;45751;51.380;10.326;2023-05-25T11:00:35;22.88;;;7.38;;
59880;SDS011;45751;51.380;10.326;2023-05-25T11:03:02;20.73;;;7.60;;
59880;SDS011;45751;51.380;10.326;2023-05-25T11:05:30;19.90;;;8.48;;
59880;SDS011;45751;51.380;10.326;2023-05-25T11:08:17;21.73;;;8.00;;
59880;SDS011;45751;51.380;10.326;2023-05-25T11:13:22;25.85;;;8.38;;
59880;SDS011;45751;51.380;10.326;2023-05-25T11:16:13;24.73;;;7.72;;
59880;SDS011;45751;51.380;10.326;2023-05-25T11:18:50;21.08;;;7.57;;
59880;SDS011;45751;51.380;10.326;2023-05-25T11:24:13;20.35;;;7.20;;
59880;SDS011;45751;51.380;10.326;2023-05-25T11:26:51;27.02;;;9.18;;
59880;SDS011;45751;51.380;10.326;2023-05-25T11:29:20;17.83;;;7.40;;
59880;SDS011;45751;51.380;10.326;2023-05-25T11:31:57;17.92;;;7.13;;
59880;SDS011;45751;51.380;10.326;2023-05-25T11:34:26;20.17;;;7.57;;
59880;SDS011;45751;51.380;10.326;2023-05-25T11:36:55;17.98;;;6.93;;
59880;SDS011;45751;51.380;10.326;2023-05-25T11:39:29;23.90;;;7.60;;
59880;SDS011;45751;51.380;10.326;2023-05-25T11:42:03;20.20;;;7.85;;
59880;SDS011;45751;51.380;10.326;2023-05-25T11:44:33;20.13;;;7.45;;
59880;SDS011;45751;51.380;10.326;2023-05-25T11:47:03;19.73;;;7.35;;
59880;SDS011;45751;51.380;10.326;2023-05-25T11:49:37;22.58;;;7.97;;
59880;SDS011;45751;51.380;10.326;2023-05-25T11:52:11;21.20;;;8.35;;
59880;SDS011;45751;51.380;10.326;2023-05-25T11:54:38;17.30;;;6.88;;
59880;SDS011;45751;51.380;10.326;2023-05-25T11:59:58;19.45;;;7.03;;
59880;SDS011;45751;51.380;10.326;2023-05-25T12:02:35;24.23;;;7.28;;
59880;SDS011;45751;51.380;10.326;2023-05-25T12:05:03;15.15;;;6.32;;
59880;SDS011;45751;51.380;10.326;2023-05-25T12:07:40;16.38;;;6.20;;
59880;SDS011;45751;51.380;10.326;2023-05-25T12:10:10;17.63;;;6.93;;
59880;SDS011;45751;51.380;10.326;2023-05-25T12:12:44;18.55;;;7.65;;
59880;SDS011;45751;51.380;10.326;2023-05-25T12:15:16;20.33;;;7.60;;
59880;SDS011;45751;51.380;10.326;2023-05-25T12:17:47;20.88;;;8.95;;
59880;SDS011;45751;51.380;10.326;2023-05-25T12:20:16;18.85;;;7.40;;
59880;SDS011;45751;51.380;10.326;2023-05-25T12:22:44;17.98;;;7.45;;
59880;SDS011;45751;51.380;10.326;2023-05-25T12:25:12;18.75;;;7.18;;
59880;SDS011;45751;51.380;10.326;2023-05-25T12:27:43;18.13;;;6.97;;
59880;SDS011;45751;51.380;10.326;2023-05-25T12:30:13;22.98;;;6.90;;
59880;SDS011;45751;51.380;10.326;2023-05-25T12:32:59;24.80;;;7.55;;
59880;SDS011;45751;51.380;10.326;2023-05-25T12:35:30;19.63;;;6.80;;
59880;SDS011;45751;51.380;10.326;2023-05-25T12:38:14;17.00;;;6.60;;
59880;SDS011;45751;51.380;10.326;2023-05-25T12:40:45;22.88;;;7.75;;
59880;SDS011;45751;51.380;10.326;2023-05-25T12:43:13;16.13;;;6.05;;
59880;SDS011;45751;51.380;10.326;2023-05-25T12:45:41;20.98;;;6.38;;
59880;SDS011;45751;51.380;10.326;2023-05-25T12:48:08;19.63;;;7.25;;
59880;SDS011;45751;51.380;10.326;2023-05-25T12:50:36;16.75;;;7.47;;
59880;SDS011;45751;51.380;10.326;2023-05-25T12:53:03;20.95;;;7.20;;
59880;SDS011;45751;51.380;10.326;2023-05-25T12:55:31;15.10;;;6.63;;
59880;SDS011;45751;51.380;10.326;2023-05-25T12:58:01;16.17;;;6.80;;
59880;SDS011;45751;51.380;10.326;2023-05-25T13:00:35;21.08;;;6.72;;
59880;SDS011;45751;51.380;10.326;2023-05-25T13:03:04;16.20;;;6.18;;
59880;SDS011;45751;51.380;10.326;2023-05-25T13:05:34;20.25;;;6.25;;
59880;SDS011;45751;51.380;10.326;2023-05-25T13:08:03;16.35;;;6.50;;
59880;SDS011;45751;51.380;10.326;2023-05-25T13:10:31;17.80;;;7.60;;
59880;SDS011;45751;51.380;10.326;2023-05-25T13:12:58;14.73;;;6.13;;
59880;SDS011;45751;51.380;10.326;2023-05-25T13:15:26;15.95;;;5.97;;
59880;SDS011;45751;51.380;10.326;2023-05-25T13:17:53;17.52;;;6.45;;
59880;SDS011;45751;51.380;10.326;2023-05-25T13:20:23;14.43;;;5.78;;
59880;SDS011;45751;51.380;10.326;2023-05-25T13:22:51;18.30;;;6.63;;
59880;SDS011;45751;51.380;10.326;2023-05-25T13:25:20;19.92;;;6.10;;
59880;SDS011;45751;51.380;10.326;2023-05-25T13:27:48;21.30;;;6.75;;
59880;SDS011;45751;51.380;10.326;2023-05-25T13:30:17;16.02;;;5.07;;
59880;SDS011;45751;51.380;10.326;2023-05-25T13:32:47;16.57;;;6.13;;
59880;SDS011;45751;51.380;10.326;2023-05-25T13:35:17;14.20;;;5.95;;
59880;SDS011;45751;51.380;10.326;2023-05-25T13:37:49;15.85;;;5.88;;
59880;SDS011;45751;51.380;10.326;2023-05-25T13:40:16;25.38;;;6.80;;
59880;SDS011;45751;51.380;10.326;2023-05-25T13:42:44;15.35;;;5.95;;
59880;SDS011;45751;51.380;10.326;2023-05-25T13:45:11;15.63;;;5.63;;
59880;SDS011;45751;51.380;10.326;2023-05-25T13:47:39;16.80;;;5.95;;
59880;SDS011;45751;51.380;10.326;2023-05-25T13:50:09;15.30;;;6.57;;
59880;SDS011;45751;51.380;10.326;2023-05-25T13:52:36;16.02;;;6.18;;
59880;SDS011;45751;51.380;10.326;2023-05-25T13:55:03;20.52;;;6.63;;
59880;SDS011;45751;51.380;10.326;2023-05-25T13:57:30;14.13;;;6.22;;
59880;SDS011;45751;51.380;10.326;2023-05-25T13:59:57;17.50;;;6.38;;
59880;SDS011;45751;51.380;10.326;2023-05-25T14:02:24;18.38;;;6.25;;
59880;SDS011;45751;51.380;10.326;2023-05-25T14:04:51;17.20;;;7.43;;
59880;SDS011;45751;51.380;10.326;2023-05-25T14:07:18;16.60;;;7.00;;
59880;SDS011;45751;51.380;10.326;2023-05-25T14:09:45;16.88;;;6.38;;
59880;SDS011;45751;51.380;10.326;2023-05-25T14:12:12;17.00;;;6.75;;
59880;SDS011;45751;51.380;10.326;2023-05-25T14:14:39;16.65;;;6.10;;
59880;SDS011;45751;51.380;10.326;2023-05-25T14:17:06;18.10;;;6.47;;
59880;SDS011;45751;51.380;10.326;2023-05-25T14:19:33;16.48;;;6.43;;
59880;SDS011;45751;51.380;10.326;2023-05-25T14:22:00;16.73;;;6.55;;
59880;SDS011;45751;51.380;10.326;2023-05-25T14:24:30;13.80;;;5.90;;
59880;SDS011;45751;51.380;10.326;2023-05-25T14:26:57;14.55;;;5.60;;
59880;SDS011;45751;51.380;10.326;2023-05-25T14:29:24;14.63;;;6.10;;
59880;SDS011;45751;51.380;10.326;2023-05-25T14:31:51;13.20;;;6.25;;
59880;SDS011;45751;51.380;10.326;2023-05-25T14:34:18;17.52;;;5.65;;
59880;SDS011;45751;51.380;10.326;2023-05-25T14:36:45;18.15;;;6.53;;
59880;SDS011;45751;51.380;10.326;2023-05-25T14:39:12;15.77;;;6.25;;
59880;SDS011;45751;51.380;10.326;2023-05-25T14:41:42;15.25;;;6.38;;
59880;SDS011;45751;51.380;10.326;2023-05-25T14:44:09;14.90;;;5.65;;
59880;SDS011;45751;51.380;10.326;2023-05-25T14:46:36;18.17;;;6.32;;
59880;SDS011;45751;51.380;10.326;2023-05-25T14:49:03;13.15;;;5.60;;
59880;SDS011;45751;51.380;10.326;2023-05-25T14:51:30;17.50;;;6.95;;